createdAt,value
2022-12-05T00:03:57.005Z,2.80
2022-12-05T00:08:59.488Z,2.90
2022-12-05T00:14:02.614Z,2.90
2022-12-05T00:19:06.710Z,2.80
2022-12-05T00:24:11.984Z,2.90
2022-12-05T00:29:14.368Z,2.80
2022-12-05T00:34:16.691Z,2.80
2022-12-05T00:39:18.991Z,2.80
2022-12-05T00:44:21.513Z,2.90
2022-12-05T00:49:23.885Z,2.90
2022-12-05T00:54:26.102Z,2.90
2022-12-05T00:59:28.336Z,2.90
2022-12-05T01:04:30.621Z,2.80
2022-12-05T01:09:32.878Z,2.80
2022-12-05T01:14:35.291Z,2.80
2022-12-05T01:19:38.056Z,2.90
2022-12-05T01:24:40.336Z,2.90
2022-12-05T01:29:42.582Z,2.80
2022-12-05T01:34:44.956Z,2.90
2022-12-05T01:39:49.150Z,2.90
2022-12-05T01:44:52.114Z,2.90
2022-12-05T01:49:54.763Z,2.80
2022-12-05T01:55:03.516Z,2.70
2022-12-05T02:00:11.647Z,2.70
2022-12-05T02:05:20.990Z,2.80
2022-12-05T02:10:24.072Z,2.90
2022-12-05T02:15:35.105Z,2.80
2022-12-05T02:20:52.756Z,2.80
2022-12-05T02:26:17.737Z,2.80
2022-12-05T02:31:38.069Z,2.90
2022-12-05T02:36:46.194Z,2.80
2022-12-05T02:42:03.256Z,2.80
2022-12-05T02:47:08.323Z,2.70
2022-12-05T02:52:14.232Z,2.70
2022-12-05T02:57:17.746Z,2.80
2022-12-05T03:02:34.034Z,2.80
2022-12-05T03:07:38.005Z,2.70
2022-12-05T03:12:47.614Z,2.90
2022-12-05T03:18:04.615Z,2.80
2022-12-05T03:23:14.873Z,2.80
2022-12-05T03:28:34.945Z,2.80
2022-12-05T03:33:44.651Z,2.80
2022-12-05T03:38:56.824Z,2.80
2022-12-05T03:44:18.317Z,2.70
2022-12-05T03:49:41.821Z,2.70
2022-12-05T03:54:57.069Z,2.70
2022-12-05T04:00:07.826Z,2.70
2022-12-05T04:05:18.303Z,2.70
2022-12-05T04:10:24.895Z,2.70
2022-12-05T04:15:54.431Z,2.70
2022-12-05T04:21:17.406Z,2.70
2022-12-05T04:26:29.151Z,2.70
2022-12-05T04:31:39.433Z,2.70
2022-12-05T04:36:50.345Z,2.70
2022-12-05T04:42:03.330Z,2.70
2022-12-05T04:47:08.620Z,2.60
2022-12-05T04:52:12.484Z,2.70
2022-12-05T04:57:24.817Z,2.70
2022-12-05T05:02:34.872Z,2.80
2022-12-05T05:07:47.178Z,2.70
2022-12-05T05:12:49.457Z,2.70
2022-12-05T05:17:51.665Z,2.70
2022-12-05T05:22:56.179Z,2.70
2022-12-05T05:27:58.875Z,2.70
2022-12-05T05:33:01.572Z,2.60
2022-12-05T05:38:04.072Z,2.60
2022-12-05T05:43:06.302Z,2.60
2022-12-05T05:48:08.524Z,2.60
2022-12-05T05:53:10.905Z,2.60
2022-12-05T05:58:13.140Z,2.60
2022-12-05T06:03:15.526Z,2.60
2022-12-05T06:08:17.912Z,2.50
2022-12-05T06:13:20.280Z,2.60
2022-12-05T06:18:22.541Z,2.60
2022-12-05T06:23:26.136Z,2.50
2022-12-05T06:28:28.673Z,2.50
2022-12-05T06:33:30.940Z,2.60
2022-12-05T06:38:35.165Z,2.60
2022-12-05T06:43:40.370Z,2.70
2022-12-05T06:48:42.603Z,2.60
2022-12-05T06:53:45.583Z,2.60
2022-12-05T06:58:49.949Z,2.60
2022-12-05T07:03:52.231Z,2.60
2022-12-05T07:08:54.963Z,2.50
2022-12-05T07:13:57.275Z,2.60
2022-12-05T07:18:59.804Z,2.50
2022-12-05T07:24:02.174Z,2.60
2022-12-05T07:29:04.625Z,2.50
2022-12-05T07:34:07.139Z,2.50
2022-12-05T07:39:09.666Z,2.60
2022-12-05T07:44:12.458Z,2.50
2022-12-05T07:49:15.950Z,2.50
2022-12-05T07:54:18.217Z,2.60
2022-12-05T07:59:20.967Z,2.60
2022-12-05T08:04:23.456Z,2.60
2022-12-05T08:09:25.903Z,2.60
2022-12-05T08:14:28.260Z,2.70
2022-12-05T08:19:30.906Z,2.70
2022-12-05T08:24:33.151Z,2.80
2022-12-05T08:29:35.981Z,2.80
2022-12-05T08:34:38.214Z,2.80
2022-12-05T08:39:40.839Z,2.80
2022-12-05T08:44:43.126Z,2.90
2022-12-05T08:49:45.697Z,2.90
2022-12-05T08:54:48.050Z,2.90
2022-12-05T08:59:50.427Z,2.90
2022-12-05T09:04:54.223Z,2.90
2022-12-05T09:09:56.635Z,3.00
2022-12-05T09:14:59.304Z,2.90
2022-12-05T09:20:02.236Z,3.00
2022-12-05T09:25:04.735Z,3.00
2022-12-05T09:30:07.810Z,3.00
2022-12-05T09:35:10.241Z,3.00
2022-12-05T09:40:19.003Z,3.00
2022-12-05T09:45:37.398Z,2.90
2022-12-05T09:50:51.192Z,2.90
2022-12-05T09:56:09.925Z,3.00
2022-12-05T10:01:44.126Z,2.90
2022-12-05T10:07:19.535Z,2.90
2022-12-05T10:12:40.507Z,2.90
2022-12-05T10:17:47.919Z,3.10
2022-12-05T10:22:52.737Z,3.10
2022-12-05T10:28:06.154Z,3.20
2022-12-05T10:33:21.412Z,3.10
2022-12-05T10:38:27.852Z,3.10
2022-12-05T10:43:32.902Z,3.00
2022-12-05T10:48:38.168Z,3.00
2022-12-05T10:53:43.520Z,3.00
2022-12-05T10:58:59.175Z,3.10
2022-12-05T11:04:30.843Z,3.20
2022-12-05T11:09:37.713Z,3.30
2022-12-05T11:14:40.121Z,3.40
2022-12-05T11:19:42.565Z,3.40
2022-12-05T11:24:44.808Z,3.40
2022-12-05T11:30:14.582Z,3.50
2022-12-05T11:35:17.277Z,3.50
2022-12-05T11:40:52.977Z,3.40
2022-12-05T11:46:21.171Z,3.50
2022-12-05T11:52:03.105Z,3.50
2022-12-05T11:57:34.589Z,3.30
2022-12-05T12:02:51.013Z,3.30
2022-12-05T12:08:27.630Z,3.40
2022-12-05T12:14:06.898Z,3.40
2022-12-05T12:19:26.365Z,3.40
2022-12-05T12:24:53.229Z,3.40
2022-12-05T12:30:20.323Z,3.40
2022-12-05T12:35:29.424Z,3.40
2022-12-05T12:40:46.368Z,3.30
2022-12-05T12:45:56.107Z,3.30
2022-12-05T12:51:02.682Z,3.40
2022-12-05T12:56:04.915Z,3.30
2022-12-05T13:01:28.919Z,3.30
2022-12-05T13:06:55.009Z,3.30
2022-12-05T13:12:02.925Z,3.30
2022-12-05T13:17:07.842Z,3.40
2022-12-05T13:22:11.423Z,3.30
2022-12-05T13:27:23.610Z,3.30
2022-12-05T13:32:38.405Z,3.30
2022-12-05T13:38:06.633Z,3.20
2022-12-05T13:43:10.363Z,3.20
2022-12-05T13:48:26.152Z,3.30
2022-12-05T13:53:47.474Z,3.30
2022-12-05T13:58:49.892Z,3.30
2022-12-05T14:03:52.157Z,3.20
2022-12-05T14:08:54.616Z,3.30
2022-12-05T14:14:03.948Z,3.20
2022-12-05T14:19:27.653Z,3.20
2022-12-05T14:24:46.779Z,3.10
2022-12-05T14:30:04.838Z,3.10
2022-12-05T14:35:15.996Z,3.20
2022-12-05T14:40:31.046Z,3.20
2022-12-05T14:45:42.324Z,3.20
2022-12-05T14:50:53.344Z,3.20
2022-12-05T14:56:13.418Z,3.30
2022-12-05T15:01:44.182Z,3.10
2022-12-05T15:07:09.925Z,3.10
2022-12-05T15:12:17.138Z,3.20
2022-12-05T15:17:25.952Z,3.20
2022-12-05T15:22:29.321Z,3.20
2022-12-05T15:27:32.152Z,3.20
2022-12-05T15:32:34.674Z,3.20
2022-12-05T15:37:45.948Z,3.20
2022-12-05T15:42:50.888Z,3.20
2022-12-05T15:48:10.097Z,3.30
2022-12-05T15:53:25.670Z,3.30
2022-12-05T15:58:36.779Z,3.20
2022-12-05T16:03:45.102Z,3.20
2022-12-05T16:08:49.272Z,3.20
2022-12-05T16:13:59.013Z,3.30
2022-12-05T16:19:15.776Z,3.30
2022-12-05T16:24:27.841Z,3.30
2022-12-05T16:29:35.095Z,3.30
2022-12-05T16:34:37.336Z,3.30
2022-12-05T16:39:44.782Z,3.30
2022-12-05T16:44:47.193Z,3.30
2022-12-05T16:49:49.445Z,3.40
2022-12-05T16:54:52.193Z,3.30
2022-12-05T16:59:54.509Z,3.30
2022-12-05T17:04:57.291Z,3.30
2022-12-05T17:09:59.700Z,3.40
2022-12-05T17:15:02.132Z,3.40
2022-12-05T17:20:05.494Z,3.50
2022-12-05T17:25:31.166Z,3.40
2022-12-05T17:30:34.520Z,3.50
2022-12-05T17:35:37.854Z,3.50
2022-12-05T17:40:40.403Z,3.50
2022-12-05T17:45:43.547Z,3.60
2022-12-05T17:50:47.956Z,3.60
2022-12-05T17:55:50.492Z,3.60
2022-12-05T18:00:52.909Z,3.50
2022-12-05T18:05:55.238Z,3.60
2022-12-05T18:10:58.472Z,3.50
2022-12-05T18:16:01.448Z,3.60
2022-12-05T18:21:09.265Z,3.60
2022-12-05T18:26:11.589Z,3.60
2022-12-05T18:31:16.255Z,3.60
2022-12-05T18:36:20.704Z,3.60
2022-12-05T18:41:24.819Z,3.60
2022-12-05T18:46:27.296Z,3.60
2022-12-05T18:51:29.661Z,3.60
2022-12-05T18:56:39.652Z,3.70
2022-12-05T19:01:42.305Z,3.60
2022-12-05T19:06:53.666Z,3.50
2022-12-05T19:11:57.147Z,3.70
2022-12-05T19:17:00.523Z,3.60
2022-12-05T19:22:03.019Z,3.70
2022-12-05T19:27:05.276Z,3.70
2022-12-05T19:32:07.814Z,3.80
2022-12-05T19:37:10.121Z,3.70
2022-12-05T19:42:12.352Z,3.60
2022-12-05T19:47:15.098Z,3.50
2022-12-05T19:52:18.138Z,3.60
2022-12-05T19:57:20.659Z,3.50
2022-12-05T20:02:25.299Z,3.70
2022-12-05T20:07:27.603Z,3.70
2022-12-05T20:12:29.890Z,3.60
2022-12-05T20:17:32.180Z,3.60
2022-12-05T20:22:34.432Z,3.90
2022-12-05T20:27:36.728Z,3.90
2022-12-05T20:32:38.981Z,3.80
2022-12-05T20:37:41.221Z,3.90
2022-12-05T20:42:46.806Z,3.70
2022-12-05T20:47:51.486Z,3.80
2022-12-05T20:52:53.814Z,3.80
2022-12-05T20:57:56.019Z,3.90
2022-12-05T21:02:58.454Z,3.90
2022-12-05T21:08:00.910Z,3.60
2022-12-05T21:13:03.244Z,3.60
2022-12-05T21:18:05.557Z,3.70
2022-12-05T21:23:07.806Z,3.90
2022-12-05T21:28:12.267Z,3.70
2022-12-05T21:33:14.531Z,3.70
2022-12-05T21:38:16.840Z,3.90
2022-12-05T21:43:19.122Z,3.90
2022-12-05T21:48:23.562Z,3.90
2022-12-05T21:53:26.171Z,3.80
2022-12-05T21:58:28.517Z,3.80
2022-12-05T22:03:30.942Z,3.80
2022-12-05T22:08:34.167Z,3.90
2022-12-05T22:13:36.908Z,3.90
2022-12-05T22:18:39.558Z,3.90
2022-12-05T22:23:42.471Z,4.00
2022-12-05T22:28:44.869Z,4.10
2022-12-05T22:33:48.056Z,4.10
2022-12-05T22:38:50.439Z,4.00
2022-12-05T22:43:58.757Z,3.90
2022-12-05T22:49:04.495Z,4.00
2022-12-05T22:54:06.829Z,4.10
2022-12-05T22:59:14.702Z,4.10
2022-12-05T23:04:18.151Z,4.20
2022-12-05T23:09:20.828Z,4.20
2022-12-05T23:14:23.064Z,4.20
2022-12-05T23:19:25.301Z,4.20
2022-12-05T23:24:27.532Z,4.10
2022-12-05T23:29:29.765Z,4.20
2022-12-05T23:34:32.066Z,4.30
2022-12-05T23:39:34.303Z,4.30
2022-12-05T23:44:36.533Z,4.20
2022-12-05T23:49:39.247Z,4.30
2022-12-05T23:54:44.280Z,4.20
2022-12-05T23:59:46.541Z,4.10
